Details From EBBR - Brussels Airport
To EBOS - Oostende
Flight Number -
Tags Routegen Generated
Created
Modified
Stats Distance 65 nm / 120 km
Max Altitude 100 ft / 30 m
Waypoints 9
Social Downloads 8
Likes 0
Share

Download

Looking for another format? Having issues loading an existing format? Contact us
Advertisement - Login to hide

Notes

Departing runway 24 EBBR. Arriving runway 14 EBOS.

Route

EBBR +50.87_+004.35 +50.86_+004.26 +50.88_+004.17 +50.99_+003.64 +51.10_+003.12 +51.11_+003.03 +51.14_+002.95 EBOS

ID Type Via Altitude (ft/m) Position (lat/lon) Dist (leg/tot) Name
O EBBR APT - 0 / 0 50.89887 / 4.45564 - / 0 nm
+50.87_+004.35 LATLON - 100 / 30 50.86847 / 4.35155 4 / 4 nm
+50.86_+004.26 LATLON - 100 / 30 50.86359 / 4.26014 3 / 7 nm
+50.88_+004.17 LATLON - 100 / 30 50.87874 / 4.17160 3 / 11 nm
+50.99_+003.64 LATLON - 100 / 30 50.98974 / 3.64402 21 / 32 nm
+51.10_+003.12 LATLON - 100 / 30 51.10073 / 3.11644 21 / 53 nm
+51.11_+003.03 LATLON - 100 / 30 51.11082 / 3.02565 3 / 56 nm
+51.14_+002.95 LATLON - 100 / 30 51.13980 / 2.94579 3 / 60 nm
O EBOS APT - 0 / 0 51.19526 / 2.87166 4 / 64 nm

Altitude Profile

Advertisement - Login to hide

EBBR

Details ICAO EBBR (BRU)
Name Brussels
Region Belgium
Timezone Europe/Brussels (UTC+2.0)
Stats Elevation 184 ft / 56 m (AMSL)
Location 50.899900° 4.492770°
Runways 3
Magnetic Variation 1.581° E

METAR

EBBR 131050Z 28004KT 230V330 9999 SCT034 07/M01 Q1033 NOSIG

Decode

TAF

TAF EBBR 130500Z 1306/1412 30005KT 9999 FEW025= TAF EBCI 130500Z 1306/1412 30005KT 9999 FEW025

Decode

Departure Runways

ID Width Length Bearing (true/mag) Surface Threshold Overrun Markings Lighting
01 164 ft / 50 m 9,810 ft / 2,990 m 14.44° / 12.86° ASPHALT 157 ft / 48 m 0 ft / 0 m PREC-APP CENTERLINE EDGE THRESHOLD ALSF-II TDZ REIL-OMNI
07L 148 ft / 45 m 11,917 ft / 3,632 m 65.37° / 63.79° ASPHALT 843 ft / 257 m 72 ft / 22 m PREC-APP CENTERLINE EDGE THRESHOLD TDZ REIL-OMNI
07R 148 ft / 45 m 10,522 ft / 3,207 m 69.88° / 68.30° ASPHALT 407 ft / 124 m 0 ft / 0 m PREC-APP CENTERLINE EDGE THRESHOLD REIL-OMNI
19 164 ft / 50 m 9,810 ft / 2,990 m 194.45° / 192.87° ASPHALT 722 ft / 220 m 43 ft / 13 m PREC-APP CENTERLINE EDGE THRESHOLD ALSF-I TDZ REIL-OMNI
25L 148 ft / 45 m 10,522 ft / 3,207 m 249.91° / 248.33° ASPHALT 0 ft / 0 m 13 ft / 4 m PREC-APP CENTERLINE EDGE THRESHOLD ALSF-II TDZ REIL-OMNI
25R 148 ft / 45 m 11,917 ft / 3,632 m 245.41° / 243.83° ASPHALT 981 ft / 299 m 0 ft / 0 m PREC-APP CENTERLINE EDGE THRESHOLD ALSF-II TDZ REIL-OMNI

EBOS

Details ICAO EBOS (OST)
Name Oostende
Region Belgium
Timezone Europe/Brussels (UTC+2.0)
Stats Elevation 13 ft / 4 m (AMSL)
Location 51.200000° 2.875010°
Runways 1
Magnetic Variation 1.057° E

METAR

EBOS 131050Z 34006KT 290V020 9999 FEW030 09/M01 Q1034 NOSIG

Decode

TAF

TAF EBOS 130500Z 1306/1412 32007KT 9999 FEW025 BECMG 1410/1412 01012KT

Decode

Destination Runways

ID Width Length Bearing (true/mag) Surface Threshold Overrun Markings Lighting
08 148 ft / 45 m 10,515 ft / 3,205 m 76.36° / 75.30° ASPHALT 984 ft / 300 m 0 ft / 0 m PREC-APP CENTERLINE EDGE THRESHOLD ALSF-II TDZ REIL-OMNI
26 148 ft / 45 m 10,515 ft / 3,205 m 256.39° / 255.33° ASPHALT 1,362 ft / 415 m 0 ft / 0 m PREC-APP CENTERLINE EDGE THRESHOLD ALSF-II TDZ REIL-OMNI

Approach Navaids

Runway Type Ident Frequency Range Bearing (true/mag) Slope Elevation
08 DME IMI 111.55 MHz 18 nm / 33 km - - 13 ft / 4 m (AMSL)
08 GS IMI 111.55 MHz 10 nm / 19 km 76.37° / 75.31 ° 3.00° 13 ft / 4 m (AMSL)
08 LOC-ILS IMI 111.55 MHz 18 nm / 33 km 76.37° / 75.31 ° - 13 ft / 4 m (AMSL)
26 LOC-ILS IOS 109.50 MHz 18 nm / 33 km 256.37° / 255.31 ° - 13 ft / 4 m (AMSL)
26 GS IOS 109.50 MHz 10 nm / 19 km 256.37° / 255.31 ° 3.00° 13 ft / 4 m (AMSL)

Popular Alternatives